Time;durP1;ratioP1;P1;durP2;ratioP2;P2;SDS_P1;SDS_P2;PMS_P1;PMS_P2;Temp;Humidity;BMP_temperature;BMP_pressure;BME280_temperature;BME280_humidity;BME280_pressure;Samples;Min_cycle;Max_cycle;Signal;HPM_P1;HPM_P2
2022/04/16 00:00:56;;;;;;;6.93;4.23;;;;;;;;;;5076018;28;20864;-73
2022/04/16 00:03:23;;;;;;;5.60;4.20;;;;;;;;;;5075797;28;20541;-73
2022/04/16 00:05:53;;;;;;;5.40;4.33;;;;;;;;;;5075921;28;20454;-73
2022/04/16 00:08:21;;;;;;;5.63;4.47;;;;;;;;;;5076155;28;20471;-73
2022/04/16 00:10:49;;;;;;;9.23;3.90;;;;;;;;;;5075809;28;20452;-73
2022/04/16 00:13:17;;;;;;;8.63;5.90;;;;;;;;;;5075922;28;20865;-73
2022/04/16 00:15:44;;;;;;;7.40;4.83;;;;;;;;;;5075635;28;20509;-73
2022/04/16 00:18:12;;;;;;;7.03;4.40;;;;;;;;;;5075531;28;20510;-73
2022/04/16 00:20:40;;;;;;;6.70;5.00;;;;;;;;;;5075754;28;20456;-73
2022/04/16 00:23:07;;;;;;;5.10;3.90;;;;;;;;;;5075035;28;20844;-71
2022/04/16 00:25:36;;;;;;;5.40;4.70;;;;;;;;;;5075441;28;20460;-71
2022/04/16 00:28:03;;;;;;;4.40;3.70;;;;;;;;;;5075362;28;20451;-71
2022/04/16 00:30:35;;;;;;;4.83;4.30;;;;;;;;;;5075559;28;20451;-71
2022/04/16 00:33:02;;;;;;;5.50;4.37;;;;;;;;;;5075476;28;20452;-71
2022/04/16 00:35:30;;;;;;;7.00;4.90;;;;;;;;;;5075369;28;20460;-71
2022/04/16 00:37:57;;;;;;;7.13;4.63;;;;;;;;;;5075267;28;20509;-71
2022/04/16 00:40:24;;;;;;;7.00;4.60;;;;;;;;;;5075600;28;20459;-73
2022/04/16 00:42:53;;;;;;;5.33;4.10;;;;;;;;;;5075108;28;20488;-73
2022/04/16 00:45:20;;;;;;;6.33;4.73;;;;;;;;;;5074921;28;20462;-73
2022/04/16 00:47:47;;;;;;;6.37;4.93;;;;;;;;;;5075133;28;20451;-73
2022/04/16 00:50:15;;;;;;;5.43;4.40;;;;;;;;;;5075074;28;20466;-73
2022/04/16 00:52:43;;;;;;;6.60;4.40;;;;;;;;;;5075258;28;20459;-73
2022/04/16 00:55:11;;;;;;;6.57;4.43;;;;;;;;;;5074686;28;20839;-73
2022/04/16 00:57:39;;;;;;;7.00;4.90;;;;;;;;;;5075028;28;20456;-73
2022/04/16 01:00:08;;;;;;;5.67;4.43;;;;;;;;;;5074815;28;20467;-73
2022/04/16 01:02:35;;;;;;;5.77;4.70;;;;;;;;;;5074807;28;20877;-73
2022/04/16 01:05:03;;;;;;;5.73;4.50;;;;;;;;;;5073529;28;20475;-73
2022/04/16 01:07:30;;;;;;;5.20;3.90;;;;;;;;;;5074933;28;20461;-73
2022/04/16 01:09:57;;;;;;;5.63;4.60;;;;;;;;;;5074731;28;20476;-73
2022/04/16 01:12:24;;;;;;;4.97;3.93;;;;;;;;;;5074742;28;20459;-73
2022/04/16 01:14:51;;;;;;;5.80;4.90;;;;;;;;;;5074316;28;20477;-73
2022/04/16 01:17:20;;;;;;;6.13;4.40;;;;;;;;;;5074643;28;20989;-73
2022/04/16 01:19:47;;;;;;;5.17;4.40;;;;;;;;;;5074555;28;20842;-71
2022/04/16 01:22:15;;;;;;;6.33;5.03;;;;;;;;;;5074185;28;20542;-71
2022/04/16 01:24:48;;;;;;;5.50;4.40;;;;;;;;;;5074346;28;20458;-70
2022/04/16 01:27:15;;;;;;;6.40;4.80;;;;;;;;;;5074538;28;20496;-70
2022/04/16 01:29:44;;;;;;;5.43;4.47;;;;;;;;;;5074447;28;20474;-70
2022/04/16 01:32:11;;;;;;;5.70;4.73;;;;;;;;;;5074292;28;20456;-70
2022/04/16 01:34:38;;;;;;;6.30;4.83;;;;;;;;;;5074264;28;20464;-70
2022/04/16 01:37:05;;;;;;;6.20;4.90;;;;;;;;;;5074200;28;20876;-70
2022/04/16 01:39:35;;;;;;;5.90;4.80;;;;;;;;;;5074217;28;20471;-70
2022/04/16 01:42:03;;;;;;;6.77;5.57;;;;;;;;;;5074008;28;20455;-70
2022/04/16 01:44:30;;;;;;;9.77;5.00;;;;;;;;;;5073804;28;20609;-70
2022/04/16 01:46:57;;;;;;;5.07;4.07;;;;;;;;;;5074057;28;20455;-73
2022/04/16 01:49:26;;;;;;;7.03;5.80;;;;;;;;;;5074073;28;20472;-73
2022/04/16 01:51:54;;;;;;;7.17;5.60;;;;;;;;;;5074007;28;20448;-73
2022/04/16 01:54:21;;;;;;;5.40;4.70;;;;;;;;;;5073962;28;20450;-73
2022/04/16 01:56:48;;;;;;;8.10;5.40;;;;;;;;;;5073859;28;20452;-73
2022/04/16 01:59:17;;;;;;;5.77;4.13;;;;;;;;;;5073858;28;21001;-73
2022/04/16 02:01:45;;;;;;;6.80;5.40;;;;;;;;;;5073845;28;20482;-73
2022/04/16 02:04:12;;;;;;;7.70;5.20;;;;;;;;;;5073305;28;20573;-73
2022/04/16 02:06:39;;;;;;;6.73;5.20;;;;;;;;;;5073836;28;20455;-73
2022/04/16 02:09:06;;;;;;;5.43;4.90;;;;;;;;;;5073495;28;20479;-73
2022/04/16 02:11:33;;;;;;;5.53;4.60;;;;;;;;;;5073496;28;20455;-73
2022/04/16 02:14:02;;;;;;;13.27;7.30;;;;;;;;;;5073209;28;20440;-73
2022/04/16 02:16:30;;;;;;;6.37;5.77;;;;;;;;;;5073170;28;20463;-73
2022/04/16 02:19:00;;;;;;;5.17;4.67;;;;;;;;;;5073270;28;20478;-73
2022/04/16 02:21:27;;;;;;;6.17;4.97;;;;;;;;;;5073107;28;20547;-73
2022/04/16 02:23:54;;;;;;;6.73;5.07;;;;;;;;;;5072893;28;20487;-73
2022/04/16 02:26:21;;;;;;;6.70;4.70;;;;;;;;;;5073384;28;20459;-73
2022/04/16 02:28:49;;;;;;;9.27;6.63;;;;;;;;;;5073216;28;21064;-73
2022/04/16 02:31:16;;;;;;;6.53;5.87;;;;;;;;;;5073073;28;20957;-73
2022/04/16 02:33:44;;;;;;;7.23;5.43;;;;;;;;;;5073168;28;20462;-73
2022/04/16 02:36:12;;;;;;;8.03;5.27;;;;;;;;;;5073099;28;20455;-73
2022/04/16 02:38:41;;;;;;;7.00;5.77;;;;;;;;;;5073121;28;20480;-73
2022/04/16 02:41:08;;;;;;;6.60;5.17;;;;;;;;;;5073110;28;20447;-73
2022/04/16 02:43:35;;;;;;;7.83;4.03;;;;;;;;;;5072861;28;20495;-73
2022/04/16 02:48:48;;;;;;;6.00;5.40;;;;;;;;;;5073076;28;20516;-70
2022/04/16 02:51:15;;;;;;;6.10;4.90;;;;;;;;;;5073024;28;20521;-70
2022/04/16 02:53:42;;;;;;;6.30;5.33;;;;;;;;;;5073093;28;20864;-70
2022/04/16 02:56:09;;;;;;;8.00;5.97;;;;;;;;;;5072883;28;20456;-70
2022/04/16 02:58:36;;;;;;;5.83;4.70;;;;;;;;;;5073021;28;20487;-70
2022/04/16 03:01:05;;;;;;;6.50;5.60;;;;;;;;;;5072891;28;20443;-70
2022/04/16 03:03:32;;;;;;;6.60;5.20;;;;;;;;;;5072673;28;20545;-70
2022/04/16 03:06:00;;;;;;;7.40;5.40;;;;;;;;;;5072913;28;20463;-70
2022/04/16 03:08:28;;;;;;;9.27;6.20;;;;;;;;;;5073002;28;20463;-70
2022/04/16 03:10:55;;;;;;;6.90;5.50;;;;;;;;;;5072827;28;20451;-70
2022/04/16 03:13:22;;;;;;;7.63;5.60;;;;;;;;;;5072701;28;20458;-73
2022/04/16 03:18:35;;;;;;;7.03;5.33;;;;;;;;;;5072815;28;21046;-72
2022/04/16 03:21:04;;;;;;;6.97;5.60;;;;;;;;;;5072623;28;20454;-73
2022/04/16 03:23:32;;;;;;;7.10;5.53;;;;;;;;;;5072338;28;20491;-73
2022/04/16 03:26:00;;;;;;;8.57;5.93;;;;;;;;;;5072681;28;20464;-73
2022/04/16 03:28:27;;;;;;;7.00;5.90;;;;;;;;;;5074685;28;20973;-73
2022/04/16 03:30:54;;;;;;;8.13;6.13;;;;;;;;;;5076693;28;20465;-73
2022/04/16 03:33:22;;;;;;;6.30;5.23;;;;;;;;;;5076637;28;20514;-73
2022/04/16 03:35:49;;;;;;;7.53;5.87;;;;;;;;;;5076533;28;20521;-73
2022/04/16 03:38:17;;;;;;;8.97;6.77;;;;;;;;;;5076402;28;20476;-73
2022/04/16 03:40:45;;;;;;;7.00;5.33;;;;;;;;;;5076498;28;20451;-73
2022/04/16 03:43:12;;;;;;;8.83;6.20;;;;;;;;;;5076223;28;21028;-73
2022/04/16 03:45:39;;;;;;;7.53;6.07;;;;;;;;;;5076231;28;20459;-73
2022/04/16 03:48:07;;;;;;;11.00;6.67;;;;;;;;;;5076149;28;20459;-73
2022/04/16 03:50:35;;;;;;;11.30;9.20;;;;;;;;;;5076480;28;20812;-73
2022/04/16 03:53:02;;;;;;;10.60;7.83;;;;;;;;;;5076363;28;20455;-73
2022/04/16 04:01:02;;;;;;;9.30;7.23;;;;;;;;;;5076038;28;20924;-73
2022/04/16 04:03:29;;;;;;;8.30;5.83;;;;;;;;;;5075774;28;20491;-73
2022/04/16 04:05:56;;;;;;;7.27;5.83;;;;;;;;;;5075862;28;20941;-73
2022/04/16 04:08:25;;;;;;;8.07;5.90;;;;;;;;;;5075840;28;20471;-73
2022/04/16 04:10:53;;;;;;;9.30;6.50;;;;;;;;;;5075798;28;20505;-73
2022/04/16 04:13:21;;;;;;;10.30;6.60;;;;;;;;;;5075850;28;20945;-73
2022/04/16 04:15:48;;;;;;;9.43;6.97;;;;;;;;;;5075669;28;20455;-73
2022/04/16 04:18:15;;;;;;;9.63;6.40;;;;;;;;;;5075723;28;20478;-73
2022/04/16 04:20:42;;;;;;;8.00;5.87;;;;;;;;;;5075819;28;20451;-73
2022/04/16 04:23:09;;;;;;;9.23;6.30;;;;;;;;;;5075187;28;20448;-73
2022/04/16 04:25:36;;;;;;;8.63;6.87;;;;;;;;;;5075415;28;20459;-73
2022/04/16 04:28:05;;;;;;;9.03;6.83;;;;;;;;;;5075377;28;20456;-73
2022/04/16 04:30:33;;;;;;;9.60;6.43;;;;;;;;;;5075664;28;20830;-73
2022/04/16 04:33:00;;;;;;;15.43;6.70;;;;;;;;;;5075381;28;20559;-73
2022/04/16 04:35:27;;;;;;;9.20;7.20;;;;;;;;;;5075376;28;20448;-73
2022/04/16 04:37:55;;;;;;;9.77;7.20;;;;;;;;;;5075895;28;20925;-73
2022/04/16 04:40:22;;;;;;;9.37;7.60;;;;;;;;;;5075007;28;20456;-73
2022/04/16 04:42:49;;;;;;;8.67;6.87;;;;;;;;;;5075346;28;20459;-73
2022/04/16 04:45:18;;;;;;;8.93;7.50;;;;;;;;;;5074929;28;20482;-73
2022/04/16 04:47:45;;;;;;;9.00;6.23;;;;;;;;;;5075198;28;20464;-73
2022/04/16 04:50:13;;;;;;;7.57;5.93;;;;;;;;;;5075139;28;20491;-73
2022/04/16 04:52:42;;;;;;;7.83;6.17;;;;;;;;;;5075145;28;20459;-73
2022/04/16 04:55:10;;;;;;;9.80;6.80;;;;;;;;;;5074887;28;20463;-73
2022/04/16 04:57:37;;;;;;;7.90;6.37;;;;;;;;;;5075217;28;20448;-73
2022/04/16 05:00:05;;;;;;;8.67;6.87;;;;;;;;;;5074906;28;20483;-73
2022/04/16 05:02:41;;;;;;;10.00;6.70;;;;;;;;;;5075302;28;20455;-73
2022/04/16 05:05:08;;;;;;;10.07;6.93;;;;;;;;;;5074803;28;20491;-70
2022/04/16 05:07:35;;;;;;;10.67;7.23;;;;;;;;;;5074922;28;20451;-70
2022/04/16 05:10:03;;;;;;;9.70;6.57;;;;;;;;;;5074736;28;21022;-70
2022/04/16 05:12:30;;;;;;;8.20;6.30;;;;;;;;;;5074928;28;20451;-70
2022/04/16 05:14:57;;;;;;;7.87;7.00;;;;;;;;;;5074475;28;20455;-70
2022/04/16 05:17:24;;;;;;;7.57;6.23;;;;;;;;;;5074875;28;20460;-70
2022/04/16 05:19:52;;;;;;;9.47;6.37;;;;;;;;;;5074422;28;20501;-70
2022/04/16 05:22:19;;;;;;;8.97;6.90;;;;;;;;;;5073916;28;20818;-71
2022/04/16 05:24:47;;;;;;;10.93;7.60;;;;;;;;;;5074317;28;20491;-71
2022/04/16 05:27:15;;;;;;;11.73;7.03;;;;;;;;;;5074446;28;20448;-71
2022/04/16 05:30:06;;;;;;;8.93;6.73;;;;;;;;;;5074426;28;20478;-71
2022/04/16 05:32:35;;;;;;;10.80;6.50;;;;;;;;;;5074437;28;20482;-71
2022/04/16 05:35:03;;;;;;;7.97;7.03;;;;;;;;;;5074162;28;20861;-71
2022/04/16 05:37:30;;;;;;;6.83;5.93;;;;;;;;;;5074293;28;20952;-71
2022/04/16 05:39:58;;;;;;;9.17;7.13;;;;;;;;;;5074178;28;20846;-71
2022/04/16 05:42:25;;;;;;;8.03;7.20;;;;;;;;;;5074235;28;20479;-71
2022/04/16 05:44:52;;;;;;;9.87;6.87;;;;;;;;;;5073716;28;20494;-71
2022/04/16 05:47:19;;;;;;;9.27;7.03;;;;;;;;;;5074185;28;20941;-71
2022/04/16 05:49:46;;;;;;;9.20;7.40;;;;;;;;;;5073797;28;20475;-71
2022/04/16 05:52:15;;;;;;;9.60;7.33;;;;;;;;;;5073468;28;20458;-71
2022/04/16 05:54:42;;;;;;;7.60;6.40;;;;;;;;;;5073752;28;20447;-71
2022/04/16 05:57:09;;;;;;;9.67;7.20;;;;;;;;;;5073846;28;20455;-71
2022/04/16 05:59:37;;;;;;;10.67;7.27;;;;;;;;;;5073828;28;20475;-71
2022/04/16 06:02:04;;;;;;;8.60;6.70;;;;;;;;;;5073755;28;20452;-71
2022/04/16 06:04:31;;;;;;;10.57;6.50;;;;;;;;;;5073364;28;20499;-71
2022/04/16 06:06:59;;;;;;;10.40;7.93;;;;;;;;;;5073550;28;20446;-71
2022/04/16 06:09:28;;;;;;;7.90;6.77;;;;;;;;;;5073611;28;20483;-71
2022/04/16 06:12:01;;;;;;;11.37;7.80;;;;;;;;;;5073612;28;20459;-71
2022/04/16 06:14:28;;;;;;;10.70;7.53;;;;;;;;;;5073421;28;20448;-71
2022/04/16 06:16:55;;;;;;;9.90;7.00;;;;;;;;;;5073452;28;20456;-71
2022/04/16 06:19:23;;;;;;;9.50;6.53;;;;;;;;;;5073317;28;20486;-71
2022/04/16 06:21:50;;;;;;;10.80;7.43;;;;;;;;;;5072944;28;20521;-71
2022/04/16 06:24:17;;;;;;;9.20;6.67;;;;;;;;;;5073181;28;20484;-71
2022/04/16 06:26:47;;;;;;;9.27;7.40;;;;;;;;;;5073149;28;20459;-71
2022/04/16 06:29:14;;;;;;;7.17;5.80;;;;;;;;;;5073315;28;20479;-71
2022/04/16 06:31:42;;;;;;;8.90;5.80;;;;;;;;;;5073204;28;20483;-71
2022/04/16 06:34:10;;;;;;;7.33;6.57;;;;;;;;;;5072948;28;21102;-71
2022/04/16 06:36:38;;;;;;;7.40;6.47;;;;;;;;;;5073287;28;20463;-71
2022/04/16 06:39:05;;;;;;;9.50;6.60;;;;;;;;;;5072898;28;20475;-71
2022/04/16 06:41:32;;;;;;;10.50;7.40;;;;;;;;;;5073161;28;20462;-71
2022/04/16 06:44:00;;;;;;;11.90;6.47;;;;;;;;;;5072775;28;20451;-71
2022/04/16 06:46:27;;;;;;;8.70;7.00;;;;;;;;;;5073057;28;20834;-71
2022/04/16 06:48:54;;;;;;;8.00;6.53;;;;;;;;;;5073075;28;20858;-71
2022/04/16 06:51:22;;;;;;;7.40;6.20;;;;;;;;;;5073125;28;20869;-71
2022/04/16 06:53:49;;;;;;;9.90;6.80;;;;;;;;;;5072909;28;20440;-71
2022/04/16 06:56:16;;;;;;;8.57;6.30;;;;;;;;;;5072955;28;20458;-71
2022/04/16 06:58:43;;;;;;;8.23;5.67;;;;;;;;;;5072796;28;20482;-71
2022/04/16 07:01:11;;;;;;;7.73;6.57;;;;;;;;;;5072710;28;20983;-71
2022/04/16 07:03:38;;;;;;;8.33;6.30;;;;;;;;;;5072777;28;20463;-71
2022/04/16 07:06:05;;;;;;;11.00;6.73;;;;;;;;;;5072601;28;20496;-71
2022/04/16 07:08:32;;;;;;;10.77;6.83;;;;;;;;;;5072722;28;20472;-71
2022/04/16 07:11:00;;;;;;;9.50;5.93;;;;;;;;;;5072963;28;20478;-71
2022/04/16 07:13:27;;;;;;;7.57;5.70;;;;;;;;;;5072879;28;20443;-71
2022/04/16 07:15:54;;;;;;;6.27;5.40;;;;;;;;;;5072699;28;20921;-71
2022/04/16 07:18:23;;;;;;;7.50;5.90;;;;;;;;;;5072748;28;20472;-71
2022/04/16 07:20:50;;;;;;;9.63;6.73;;;;;;;;;;5072644;28;20460;-71
2022/04/16 07:23:17;;;;;;;8.23;6.10;;;;;;;;;;5072106;28;20452;-72
2022/04/16 07:25:44;;;;;;;10.00;6.50;;;;;;;;;;5072359;28;21030;-72
2022/04/16 07:28:12;;;;;;;8.80;6.63;;;;;;;;;;5072460;28;20480;-71
2022/04/16 07:30:39;;;;;;;7.10;6.00;;;;;;;;;;5072685;28;20464;-71
2022/04/16 07:33:06;;;;;;;6.60;5.70;;;;;;;;;;5072529;28;20440;-71
2022/04/16 07:35:38;;;;;;;8.10;6.20;;;;;;;;;;5072457;28;20467;-71
2022/04/16 07:38:06;;;;;;;9.57;5.87;;;;;;;;;;5072488;28;20510;-71
2022/04/16 07:40:34;;;;;;;8.00;6.10;;;;;;;;;;5072602;28;20452;-71
2022/04/16 07:43:01;;;;;;;7.50;5.30;;;;;;;;;;5072749;28;20889;-71
2022/04/16 07:45:29;;;;;;;8.63;6.10;;;;;;;;;;5072330;28;20523;-71
2022/04/16 07:47:56;;;;;;;8.70;6.67;;;;;;;;;;5072325;28;20463;-71
2022/04/16 07:50:23;;;;;;;15.50;9.70;;;;;;;;;;5072521;28;20959;-72
2022/04/16 07:52:51;;;;;;;11.87;8.43;;;;;;;;;;5072315;28;20467;-72
2022/04/16 07:55:19;;;;;;;7.50;6.70;;;;;;;;;;5072071;28;20850;-72
2022/04/16 07:57:47;;;;;;;9.37;6.80;;;;;;;;;;5072434;28;20495;-71
2022/04/16 08:00:14;;;;;;;6.07;5.37;;;;;;;;;;5072138;28;20481;-71
2022/04/16 08:02:41;;;;;;;6.87;5.40;;;;;;;;;;5072374;28;20455;-71
2022/04/16 08:05:09;;;;;;;7.43;5.00;;;;;;;;;;5072062;28;21008;-71
2022/04/16 08:07:36;;;;;;;5.73;5.13;;;;;;;;;;5072280;28;20463;-71
2022/04/16 08:10:04;;;;;;;6.33;5.30;;;;;;;;;;5072159;28;20485;-71
2022/04/16 08:12:31;;;;;;;6.60;5.47;;;;;;;;;;5072170;28;20463;-71
2022/04/16 08:14:58;;;;;;;5.30;4.43;;;;;;;;;;5074416;28;20455;-72
2022/04/16 08:17:26;;;;;;;5.80;4.70;;;;;;;;;;5075809;28;20459;-71
2022/04/16 08:19:53;;;;;;;6.60;5.00;;;;;;;;;;5075693;28;20468;-71
2022/04/16 08:22:21;;;;;;;5.43;4.57;;;;;;;;;;5075129;28;20865;-71
2022/04/16 08:25:43;;;;;;;7.10;5.07;;;;;;;;;;5075407;28;20835;-71
2022/04/16 08:27:45;;;;;;;6.90;4.73;;;;;;;;;;5075453;28;20534;-71
2022/04/16 08:30:12;;;;;;;5.83;3.77;;;;;;;;;;5075441;28;20468;-71
2022/04/16 08:32:41;;;;;;;4.90;4.50;;;;;;;;;;5075483;28;20451;-71
2022/04/16 08:35:08;;;;;;;5.60;4.83;;;;;;;;;;5075310;28;20483;-71
2022/04/16 08:37:36;;;;;;;10.27;8.87;;;;;;;;;;5075440;28;20462;-71
2022/04/16 08:40:03;;;;;;;5.17;4.67;;;;;;;;;;5075167;28;20483;-71
2022/04/16 08:42:31;;;;;;;3.83;3.17;;;;;;;;;;5075523;28;20988;-71
2022/04/16 08:44:59;;;;;;;3.60;3.17;;;;;;;;;;5075037;28;20488;-71
2022/04/16 08:47:26;;;;;;;3.70;3.40;;;;;;;;;;5075318;28;20451;-71
2022/04/16 08:49:53;;;;;;;3.97;3.10;;;;;;;;;;5075227;28;20494;-71
2022/04/16 08:52:22;;;;;;;4.90;4.40;;;;;;;;;;5075295;28;20455;-71
2022/04/16 08:54:49;;;;;;;4.00;3.00;;;;;;;;;;5075047;28;20458;-71
2022/04/16 08:57:16;;;;;;;3.80;3.40;;;;;;;;;;5075302;28;20460;-71
2022/04/16 08:59:50;;;;;;;3.03;2.60;;;;;;;;;;5074922;28;20471;-71
2022/04/16 09:02:19;;;;;;;3.27;2.93;;;;;;;;;;5075132;28;20554;-71
2022/04/16 09:04:47;;;;;;;4.90;3.50;;;;;;;;;;5074610;28;20459;-71
2022/04/16 09:07:14;;;;;;;4.37;3.93;;;;;;;;;;5074796;28;20953;-71
2022/04/16 09:09:41;;;;;;;4.20;3.50;;;;;;;;;;5074821;28;20475;-71
2022/04/16 09:12:16;;;;;;;4.80;4.20;;;;;;;;;;5074656;28;20470;-71
2022/04/16 09:14:45;;;;;;;5.13;4.13;;;;;;;;;;5074620;28;21009;-71
2022/04/16 09:17:15;;;;;;;4.40;4.00;;;;;;;;;;5074574;28;20459;-71
2022/04/16 09:19:44;;;;;;;4.67;4.20;;;;;;;;;;5074994;28;20475;-71
2022/04/16 09:22:11;;;;;;;5.77;4.63;;;;;;;;;;5074043;28;20971;-71
2022/04/16 09:24:47;;;;;;;4.40;4.00;;;;;;;;;;5073746;28;20953;-71
2022/04/16 09:27:14;;;;;;;5.50;4.47;;;;;;;;;;5074011;28;20443;-71
2022/04/16 09:29:43;;;;;;;5.37;4.57;;;;;;;;;;5074445;28;20479;-71
2022/04/16 09:32:10;;;;;;;5.20;4.70;;;;;;;;;;5074248;28;20460;-71
2022/04/16 09:34:37;;;;;;;5.10;4.27;;;;;;;;;;5074169;28;20447;-71
2022/04/16 09:37:14;;;;;;;6.23;4.83;;;;;;;;;;5074175;28;20448;-71
2022/04/16 09:39:41;;;;;;;6.00;5.50;;;;;;;;;;5074142;28;20482;-71
2022/04/16 09:42:09;;;;;;;4.80;4.37;;;;;;;;;;5074384;28;20479;-71
2022/04/16 09:44:36;;;;;;;5.70;4.73;;;;;;;;;;5074021;28;20467;-71
2022/04/16 09:47:04;;;;;;;5.50;3.97;;;;;;;;;;5074008;28;20495;-71
2022/04/16 09:49:33;;;;;;;5.50;5.00;;;;;;;;;;5074215;28;20515;-71
2022/04/16 09:52:02;;;;;;;4.77;4.33;;;;;;;;;;5073877;28;20471;-71
2022/04/16 09:54:31;;;;;;;4.20;3.80;;;;;;;;;;5073865;28;20498;-71
2022/04/16 09:57:01;;;;;;;4.50;4.10;;;;;;;;;;5073671;28;20455;-71
2022/04/16 09:59:30;;;;;;;5.30;3.40;;;;;;;;;;5074150;28;20871;-71
2022/04/16 10:01:57;;;;;;;4.73;3.97;;;;;;;;;;5073753;28;20448;-71
2022/04/16 10:04:24;;;;;;;5.87;4.60;;;;;;;;;;5073532;28;20462;-71
2022/04/16 10:06:52;;;;;;;4.43;3.63;;;;;;;;;;5073566;28;20484;-71
2022/04/16 10:09:22;;;;;;;6.83;4.10;;;;;;;;;;5073462;28;20480;-71
2022/04/16 10:14:43;;;;;;;5.13;4.63;;;;;;;;;;5073564;28;20423;-71
2022/04/16 10:17:16;;;;;;;3.97;3.57;;;;;;;;;;5073556;28;20452;-71
2022/04/16 10:19:47;;;;;;;4.40;3.87;;;;;;;;;;5073485;28;20475;-71
2022/04/16 10:22:23;;;;;;;5.03;4.03;;;;;;;;;;5072828;28;20456;-71
2022/04/16 10:24:51;;;;;;;4.97;4.27;;;;;;;;;;5073101;28;20885;-71
2022/04/16 10:27:23;;;;;;;4.00;3.60;;;;;;;;;;5073273;28;20491;-71
2022/04/16 10:29:50;;;;;;;7.03;5.40;;;;;;;;;;5073275;28;20478;-71
2022/04/16 10:32:18;;;;;;;4.83;4.27;;;;;;;;;;5073165;28;20455;-71
2022/04/16 10:34:45;;;;;;;6.60;5.73;;;;;;;;;;5073159;28;20482;-71
2022/04/16 10:37:23;;;;;;;8.20;7.53;;;;;;;;;;5072864;28;20455;-71
2022/04/16 10:39:53;;;;;;;5.53;4.60;;;;;;;;;;5073173;28;20839;-71
2022/04/16 10:42:31;;;;;;;5.77;4.20;;;;;;;;;;5073540;28;20541;-71
2022/04/16 10:45:07;;;;;;;4.10;3.60;;;;;;;;;;5072840;28;20455;-71
2022/04/16 10:47:36;;;;;;;5.33;4.00;;;;;;;;;;5073190;28;20473;-71
2022/04/16 10:50:08;;;;;;;6.90;4.90;;;;;;;;;;5073098;28;20472;-71
2022/04/16 10:52:35;;;;;;;7.30;5.87;;;;;;;;;;5073128;28;20505;-71
2022/04/16 10:55:04;;;;;;;6.87;5.93;;;;;;;;;;5072684;28;20447;-71
2022/04/16 10:57:32;;;;;;;8.90;6.80;;;;;;;;;;5072999;28;20876;-71
2022/04/16 11:00:00;;;;;;;9.30;7.30;;;;;;;;;;5072844;28;20470;-71
2022/04/16 11:02:28;;;;;;;8.33;6.90;;;;;;;;;;5072833;28;20509;-71
2022/04/16 11:04:59;;;;;;;9.23;7.60;;;;;;;;;;5072845;28;20452;-71
2022/04/16 11:07:27;;;;;;;10.13;7.83;;;;;;;;;;5072875;28;20487;-71
2022/04/16 11:09:54;;;;;;;11.53;8.90;;;;;;;;;;5072607;28;20468;-71
2022/04/16 11:12:21;;;;;;;13.07;8.83;;;;;;;;;;5072842;28;20443;-71
2022/04/16 11:14:51;;;;;;;12.50;9.07;;;;;;;;;;5072593;28;20455;-71
2022/04/16 11:17:19;;;;;;;9.63;7.03;;;;;;;;;;5072855;28;20464;-71
2022/04/16 11:19:48;;;;;;;13.30;8.50;;;;;;;;;;5072823;28;20467;-71
2022/04/16 11:22:16;;;;;;;12.63;9.43;;;;;;;;;;5072281;28;20586;-71
2022/04/16 11:24:44;;;;;;;13.83;7.97;;;;;;;;;;5072579;28;20451;-71
2022/04/16 11:35:27;;;;;;;9.37;7.57;;;;;;;;;;5072659;28;20478;-71
2022/04/16 11:37:54;;;;;;;11.47;7.73;;;;;;;;;;5072384;28;20452;-71
2022/04/16 11:40:21;;;;;;;8.83;6.73;;;;;;;;;;5072631;28;20459;-71
2022/04/16 11:42:48;;;;;;;11.33;7.43;;;;;;;;;;5072621;28;20970;-71
2022/04/16 11:45:17;;;;;;;11.67;7.13;;;;;;;;;;5072151;28;20828;-71
2022/04/16 11:47:44;;;;;;;11.80;7.60;;;;;;;;;;5072324;28;20494;-71
2022/04/16 11:50:13;;;;;;;12.93;7.83;;;;;;;;;;5075533;28;20467;-71
2022/04/16 11:52:40;;;;;;;11.43;6.73;;;;;;;;;;5076341;28;20452;-72
2022/04/16 11:55:10;;;;;;;10.37;7.10;;;;;;;;;;5076142;28;20550;-71
2022/04/16 11:57:37;;;;;;;14.03;7.43;;;;;;;;;;5076270;28;20454;-71
2022/04/16 12:00:05;;;;;;;9.57;7.07;;;;;;;;;;5075842;28;20475;-71
2022/04/16 12:02:35;;;;;;;13.07;9.17;;;;;;;;;;5076272;28;20443;-71
2022/04/16 12:05:12;;;;;;;13.63;8.00;;;;;;;;;;5075899;28;20454;-71
2022/04/16 12:07:41;;;;;;;12.63;8.00;;;;;;;;;;5076077;28;20545;-71
2022/04/16 12:10:08;;;;;;;12.50;9.60;;;;;;;;;;5075964;28;20463;-71
2022/04/16 12:12:48;;;;;;;12.10;7.10;;;;;;;;;;5076046;28;20462;-71
2022/04/16 12:15:22;;;;;;;15.13;8.93;;;;;;;;;;5075879;28;20454;-71
2022/04/16 12:17:51;;;;;;;12.63;7.93;;;;;;;;;;5076201;28;20459;-71
2022/04/16 12:20:20;;;;;;;10.70;7.93;;;;;;;;;;5075963;28;20846;-71
2022/04/16 12:22:50;;;;;;;16.90;9.90;;;;;;;;;;5075385;28;20944;-71
2022/04/16 12:25:18;;;;;;;13.33;8.43;;;;;;;;;;5075541;28;20467;-71
2022/04/16 12:27:46;;;;;;;12.10;9.40;;;;;;;;;;5075853;28;20488;-71
2022/04/16 12:30:14;;;;;;;11.20;8.10;;;;;;;;;;5075710;28;20503;-71
2022/04/16 12:32:41;;;;;;;9.70;7.70;;;;;;;;;;5075952;28;20493;-71
2022/04/16 12:35:10;;;;;;;11.40;6.97;;;;;;;;;;5075617;28;20448;-71
2022/04/16 12:37:37;;;;;;;10.20;8.00;;;;;;;;;;5075840;28;20448;-71
2022/04/16 12:40:05;;;;;;;8.57;5.23;;;;;;;;;;5075496;28;20992;-71
2022/04/16 12:42:33;;;;;;;10.33;7.57;;;;;;;;;;5075631;28;20451;-71
2022/04/16 12:45:00;;;;;;;9.03;7.10;;;;;;;;;;5075212;28;20455;-71
2022/04/16 12:47:27;;;;;;;9.33;6.60;;;;;;;;;;5075409;28;20487;-71
2022/04/16 12:49:54;;;;;;;11.73;7.03;;;;;;;;;;5075239;28;20529;-71
2022/04/16 12:52:23;;;;;;;8.10;6.57;;;;;;;;;;5075432;28;20459;-71
2022/04/16 12:54:51;;;;;;;16.43;11.77;;;;;;;;;;5075193;28;20480;-71
2022/04/16 12:57:18;;;;;;;13.97;11.97;;;;;;;;;;5075281;28;20504;-71
2022/04/16 12:59:45;;;;;;;11.07;7.30;;;;;;;;;;5075293;28;20467;-71
2022/04/16 13:02:12;;;;;;;9.10;7.53;;;;;;;;;;5075142;28;20476;-71
2022/04/16 13:04:39;;;;;;;8.87;7.63;;;;;;;;;;5074887;28;20827;-71
2022/04/16 13:07:06;;;;;;;7.83;6.93;;;;;;;;;;5074977;28;20897;-71
2022/04/16 13:09:35;;;;;;;13.10;7.43;;;;;;;;;;5075175;28;20479;-71
2022/04/16 13:12:02;;;;;;;16.40;11.57;;;;;;;;;;5074936;28;20463;-71
2022/04/16 13:14:29;;;;;;;28.40;14.13;;;;;;;;;;5074886;28;20456;-71
2022/04/16 13:16:56;;;;;;;13.73;10.30;;;;;;;;;;5074782;28;20447;-71
2022/04/16 13:19:24;;;;;;;24.50;14.50;;;;;;;;;;5074853;28;20470;-71
2022/04/16 13:21:52;;;;;;;75.43;40.13;;;;;;;;;;5074432;28;20813;-71
2022/04/16 13:24:19;;;;;;;11.63;8.40;;;;;;;;;;5074614;28;20494;-71
2022/04/16 13:26:47;;;;;;;7.97;6.77;;;;;;;;;;5074586;28;21004;-71
2022/04/16 13:29:16;;;;;;;11.90;7.37;;;;;;;;;;5074661;28;20467;-71
2022/04/16 13:31:44;;;;;;;6.63;5.90;;;;;;;;;;5074743;28;20452;-71
2022/04/16 13:34:11;;;;;;;11.00;7.73;;;;;;;;;;5074221;28;20447;-71
2022/04/16 13:36:38;;;;;;;25.53;15.70;;;;;;;;;;5074637;28;20933;-71
2022/04/16 13:39:06;;;;;;;21.50;11.90;;;;;;;;;;5074363;28;20471;-71
2022/04/16 13:41:38;;;;;;;13.77;9.17;;;;;;;;;;5074611;28;20458;-71
2022/04/16 13:44:07;;;;;;;18.70;11.00;;;;;;;;;;5074030;28;20455;-71
2022/04/16 13:46:34;;;;;;;33.90;19.23;;;;;;;;;;5074297;28;20533;-71
2022/04/16 13:49:03;;;;;;;29.93;16.33;;;;;;;;;;5074231;28;20475;-71
2022/04/16 13:51:30;;;;;;;17.03;12.50;;;;;;;;;;5074280;28;20452;-71
2022/04/16 13:53:57;;;;;;;30.93;17.47;;;;;;;;;;5073980;28;20455;-71
2022/04/16 13:56:24;;;;;;;12.57;8.50;;;;;;;;;;5074135;28;20455;-71
2022/04/16 13:58:51;;;;;;;68.47;35.27;;;;;;;;;;5074053;28;20480;-71
2022/04/16 14:01:21;;;;;;;16.07;10.50;;;;;;;;;;5074276;28;20451;-72
2022/04/16 14:03:50;;;;;;;35.33;20.00;;;;;;;;;;5073970;28;21044;-71
2022/04/16 14:06:17;;;;;;;19.80;11.47;;;;;;;;;;5073737;28;20506;-71
2022/04/16 14:08:44;;;;;;;35.30;18.77;;;;;;;;;;5073786;28;20463;-71
2022/04/16 14:11:11;;;;;;;22.00;13.53;;;;;;;;;;5073141;28;20452;-71
2022/04/16 14:13:39;;;;;;;18.60;11.00;;;;;;;;;;5073563;28;20830;-71
2022/04/16 14:16:07;;;;;;;18.13;10.60;;;;;;;;;;5073520;28;20486;-71
2022/04/16 14:18:35;;;;;;;28.10;12.03;;;;;;;;;;5073693;28;20475;-71
2022/04/16 14:21:03;;;;;;;73.70;35.73;;;;;;;;;;5073572;28;20456;-71
2022/04/16 14:23:32;;;;;;;35.90;20.50;;;;;;;;;;5072866;28;20452;-72
2022/04/16 14:25:59;;;;;;;17.00;10.60;;;;;;;;;;5073330;28;20517;-71
2022/04/16 14:28:26;;;;;;;27.80;16.60;;;;;;;;;;5073431;28;21019;-71
2022/04/16 14:30:53;;;;;;;16.27;9.80;;;;;;;;;;5073539;28;20963;-71
2022/04/16 14:33:20;;;;;;;5.70;4.80;;;;;;;;;;5073357;28;20466;-72
2022/04/16 14:35:49;;;;;;;190.77;101.17;;;;;;;;;;5073184;28;20456;-71
2022/04/16 14:38:18;;;;;;;30.87;17.17;;;;;;;;;;5073072;28;20499;-71
2022/04/16 14:40:45;;;;;;;16.20;9.10;;;;;;;;;;5073264;28;21029;-71
2022/04/16 14:43:13;;;;;;;13.57;9.77;;;;;;;;;;5073249;28;20458;-71
2022/04/16 14:45:41;;;;;;;22.43;12.10;;;;;;;;;;5073114;28;20459;-71
2022/04/16 14:48:09;;;;;;;14.03;8.47;;;;;;;;;;5073031;28;20561;-72
2022/04/16 14:50:37;;;;;;;55.50;39.20;;;;;;;;;;5073390;28;20479;-72
2022/04/16 14:53:06;;;;;;;14.23;10.40;;;;;;;;;;5073075;28;20468;-72
2022/04/16 14:55:36;;;;;;;14.70;12.03;;;;;;;;;;5073102;28;20458;-72
2022/04/16 14:58:04;;;;;;;6.40;5.27;;;;;;;;;;5072944;28;20454;-72
2022/04/16 15:00:31;;;;;;;6.87;6.20;;;;;;;;;;5073167;28;20451;-72
2022/04/16 15:02:58;;;;;;;22.03;12.73;;;;;;;;;;5073101;28;20456;-72
2022/04/16 15:05:25;;;;;;;48.93;18.30;;;;;;;;;;5072881;28;20459;-72